Time;durP1;ratioP1;P1;durP2;ratioP2;P2;SDS_P1;SDS_P2;PMS_P1;PMS_P2;Temp;Humidity;BMP_temperature;BMP_pressure;BME280_temperature;BME280_humidity;BME280_pressure;Samples;Min_cycle;Max_cycle;Signal;HPM_P1;HPM_P2
2024/02/23 00:00:42;;;;;;;1999.90;999.90;;;8.90;99.90;;;;;;5072855;28;20032;-80
2024/02/23 00:03:08;;;;;;;1999.90;999.90;;;8.90;99.90;;;;;;5072081;28;20032;-80
2024/02/23 00:05:34;;;;;;;1999.90;999.90;;;9.10;99.90;;;;;;5072377;28;20495;-79
2024/02/23 00:07:59;;;;;;;1999.90;999.90;;;9.20;99.90;;;;;;5071487;28;20028;-84
2024/02/23 00:10:25;;;;;;;1999.90;999.90;;;9.10;99.90;;;;;;5078111;28;20012;-82
2024/02/23 00:12:51;;;;;;;1999.90;999.90;;;8.90;99.90;;;;;;5073270;28;20029;-81
2024/02/23 00:15:17;;;;;;;1999.90;999.90;;;8.70;99.90;;;;;;5068249;28;20139;-80
2024/02/23 00:17:42;;;;;;;1999.90;999.90;;;8.40;99.90;;;;;;5055760;28;20094;-80
2024/02/23 00:20:12;;;;;;;1999.90;999.90;;;8.20;99.90;;;;;;5051834;28;20505;-81
2024/02/23 00:22:38;;;;;;;1999.90;999.90;;;7.90;99.90;;;;;;5051526;28;20025;-84
2024/02/23 00:25:05;;;;;;;1999.90;999.90;;;7.80;99.90;;;;;;5066901;28;20010;-80
2024/02/23 00:27:31;;;;;;;1999.90;999.90;;;7.60;99.90;;;;;;5057406;28;20025;-84
2024/02/23 00:29:56;;;;;;;1999.90;999.90;;;7.50;99.90;;;;;;5074808;28;20032;-80
2024/02/23 00:32:22;;;;;;;1999.90;999.90;;;7.40;99.90;;;;;;5088171;28;20089;-80
2024/02/23 00:34:47;;;;;;;1999.90;999.90;;;7.30;99.90;;;;;;5075060;28;20021;-80
2024/02/23 00:37:13;;;;;;;1999.90;999.90;;;7.20;99.90;;;;;;5075858;28;20024;-80
2024/02/23 00:39:39;;;;;;;1999.90;999.90;;;7.20;99.90;;;;;;5082298;28;20030;-84
2024/02/23 00:42:05;;;;;;;1999.90;999.90;;;7.10;99.90;;;;;;5074719;28;20028;-84
2024/02/23 00:44:30;;;;;;;1999.90;999.90;;;7.10;99.90;;;;;;5076395;28;20103;-84
2024/02/23 00:47:01;;;;;;;1999.90;999.90;;;7.10;99.90;;;;;;5089088;28;20028;-83
2024/02/23 00:49:27;;;;;;;1999.90;999.90;;;7.10;99.90;;;;;;5077658;28;20437;-80
2024/02/23 00:51:55;;;;;;;1999.90;999.90;;;7.40;99.90;;;;;;5074467;28;20039;-80
2024/02/23 00:54:21;;;;;;;1999.90;999.90;;;7.80;99.90;;;;;;5082593;28;20064;-84
2024/02/23 00:56:47;;;;;;;1999.90;999.90;;;8.00;99.90;;;;;;5074361;28;20082;-80
2024/02/23 00:59:13;;;;;;;1999.90;999.90;;;8.10;99.90;;;;;;5073717;28;20085;-80
2024/02/23 01:01:38;;;;;;;1999.90;999.90;;;8.20;99.90;;;;;;5075647;28;20032;-84
2024/02/23 01:04:07;;;;;;;1999.90;999.90;;;8.20;99.90;;;;;;5075571;28;20025;-84
2024/02/23 01:06:33;;;;;;;1999.90;999.90;;;8.30;99.90;;;;;;5075542;28;20035;-80
2024/02/23 01:08:58;;;;;;;1999.90;999.90;;;8.30;99.90;;;;;;5076142;28;20032;-80
2024/02/23 01:11:24;;;;;;;1999.90;999.90;;;8.30;99.90;;;;;;5075179;28;20042;-81
2024/02/23 01:13:49;;;;;;;1999.90;999.90;;;8.30;99.90;;;;;;5075592;28;20109;-80
2024/02/23 01:16:16;;;;;;;1999.90;999.90;;;8.30;99.90;;;;;;5066760;28;20029;-80
2024/02/23 01:18:41;;;;;;;1999.90;999.90;;;8.40;99.90;;;;;;5054734;28;20501;-80
2024/02/23 01:21:08;;;;;;;1999.90;999.90;;;8.40;99.90;;;;;;5058881;28;20025;-80
2024/02/23 01:23:33;;;;;;;1999.90;999.90;;;8.30;99.90;;;;;;5055108;28;20033;-80
2024/02/23 01:26:00;;;;;;;1999.90;999.90;;;8.30;99.90;;;;;;5053762;28;20390;-80
2024/02/23 01:28:25;;;;;;;1999.90;999.90;;;8.40;99.90;;;;;;5071853;28;20039;-80
2024/02/23 01:30:51;;;;;;;1999.90;999.90;;;8.40;99.90;;;;;;5067057;28;20028;-80
2024/02/23 01:33:17;;;;;;;1999.90;999.90;;;8.30;99.90;;;;;;5055450;28;20025;-80
2024/02/23 01:35:42;;;;;;;1999.90;999.90;;;8.20;99.90;;;;;;5053388;28;20021;-81
2024/02/23 01:38:08;;;;;;;1999.90;999.90;;;8.10;99.90;;;;;;5064516;28;20048;-84
2024/02/23 01:40:34;;;;;;;1999.90;999.90;;;8.10;99.90;;;;;;5055232;28;20028;-80
2024/02/23 01:43:06;;;;;;;1999.90;999.90;;;8.00;99.90;;;;;;5055074;28;20028;-84
2024/02/23 01:45:32;;;;;;;1999.90;999.90;;;7.90;99.90;;;;;;5055023;28;20032;-84
2024/02/23 01:47:58;;;;;;;1999.90;999.90;;;7.80;99.90;;;;;;5055009;28;20029;-81
2024/02/23 01:50:25;;;;;;;1999.90;999.90;;;7.80;99.90;;;;;;5056648;28;20034;-83
2024/02/23 01:52:52;;;;;;;1999.90;999.90;;;7.80;99.90;;;;;;5062869;28;20123;-80
2024/02/23 01:55:22;;;;;;;1999.90;999.90;;;7.80;99.90;;;;;;5053480;28;20394;-83
2024/02/23 01:57:48;;;;;;;1999.90;999.90;;;7.80;99.90;;;;;;5053368;28;20119;-84
2024/02/23 02:00:17;;;;;;;1999.90;999.90;;;7.80;99.90;;;;;;5064041;28;20399;-84
2024/02/23 02:02:48;;;;;;;1999.90;999.90;;;7.80;99.90;;;;;;5054473;28;20025;-80
2024/02/23 02:05:14;;;;;;;1999.90;999.90;;;7.90;99.90;;;;;;5053324;28;20029;-80
2024/02/23 02:07:43;;;;;;;1999.90;999.90;;;7.90;99.90;;;;;;5066434;28;20029;-80
2024/02/23 02:10:10;;;;;;;1999.90;999.90;;;8.00;99.90;;;;;;5053021;28;20060;-80
2024/02/23 02:12:35;;;;;;;1999.90;999.90;;;8.10;99.90;;;;;;5053044;28;20482;-80
2024/02/23 02:15:02;;;;;;;1999.90;999.90;;;8.20;99.90;;;;;;5062048;28;20135;-80
2024/02/23 02:17:28;;;;;;;1999.90;999.90;;;8.10;99.90;;;;;;5052458;28;20052;-80
2024/02/23 02:19:54;;;;;;;1999.90;999.90;;;8.10;99.90;;;;;;5052782;28;20021;-80
2024/02/23 02:22:19;;;;;;;1999.90;999.90;;;8.10;99.90;;;;;;5068576;28;20080;-83
2024/02/23 02:24:47;;;;;;;1999.90;999.90;;;8.20;99.90;;;;;;5054338;28;20471;-79
2024/02/23 02:27:13;;;;;;;1999.90;999.90;;;8.20;99.90;;;;;;5054110;28;20025;-80
2024/02/23 02:29:40;;;;;;;1999.90;999.90;;;8.00;99.90;;;;;;5079046;28;20043;-80
2024/02/23 02:32:05;;;;;;;1999.90;999.90;;;7.90;99.90;;;;;;5073902;28;20039;-80
2024/02/23 02:34:31;;;;;;;1999.90;999.90;;;7.90;99.90;;;;;;5072555;28;20032;-79
2024/02/23 02:36:57;;;;;;;1999.90;999.90;;;7.90;99.90;;;;;;5076889;28;20509;-80
2024/02/23 02:39:22;;;;;;;1999.90;999.90;;;7.80;99.90;;;;;;5073602;28;20028;-80
2024/02/23 02:41:48;;;;;;;1999.90;999.90;;;7.70;99.90;;;;;;5072752;28;20020;-83
2024/02/23 02:44:15;;;;;;;1999.90;999.90;;;7.70;99.90;;;;;;5088488;28;20021;-80
2024/02/23 02:46:41;;;;;;;1999.90;999.90;;;7.80;99.90;;;;;;5074033;28;20032;-80
2024/02/23 02:49:07;;;;;;;1999.90;999.90;;;7.80;99.90;;;;;;5071808;28;20078;-80
2024/02/23 02:51:33;;;;;;;1999.90;999.90;;;7.80;99.90;;;;;;5081602;28;20076;-83
2024/02/23 02:53:58;;;;;;;1999.90;999.90;;;7.80;99.90;;;;;;5072102;28;20060;-80
2024/02/23 02:56:24;;;;;;;1999.90;999.90;;;7.70;99.90;;;;;;5073592;28;20099;-80
2024/02/23 02:58:49;;;;;;;1999.90;999.90;;;7.80;99.90;;;;;;5074929;28;20471;-80
2024/02/23 03:01:15;;;;;;;1999.90;999.90;;;7.90;99.90;;;;;;5071970;28;20032;-83
2024/02/23 03:03:41;;;;;;;1999.90;999.90;;;7.90;99.90;;;;;;5073740;28;20438;-80
2024/02/23 03:06:07;;;;;;;1999.90;999.90;;;7.90;99.90;;;;;;5074893;28;20048;-83
2024/02/23 03:08:33;;;;;;;1999.90;999.90;;;7.90;99.90;;;;;;5073653;28;20032;-80
2024/02/23 03:10:58;;;;;;;1999.90;999.90;;;7.90;99.90;;;;;;5069954;28;20560;-80
2024/02/23 03:13:25;;;;;;;1999.90;999.90;;;7.90;99.90;;;;;;5055348;28;20104;-80
2024/02/23 03:15:51;;;;;;;1999.90;999.90;;;8.00;99.90;;;;;;5051987;28;20101;-81
2024/02/23 03:18:17;;;;;;;1999.90;999.90;;;7.90;99.90;;;;;;5060775;28;20068;-80
2024/02/23 03:20:42;;;;;;;1999.90;999.90;;;7.80;99.90;;;;;;5054932;28;20048;-80
2024/02/23 03:23:08;;;;;;;1999.90;999.90;;;7.80;99.90;;;;;;5053051;28;20021;-84
2024/02/23 03:25:34;;;;;;;1999.90;999.90;;;7.80;99.90;;;;;;5055947;28;20060;-80
2024/02/23 03:28:00;;;;;;;1999.90;999.90;;;7.90;99.90;;;;;;5051399;28;20112;-80
2024/02/23 03:30:26;;;;;;;1999.90;999.90;;;8.00;99.90;;;;;;5051808;28;20098;-80
2024/02/23 03:32:51;;;;;;;1999.90;999.90;;;8.20;99.90;;;;;;5059802;28;20032;-80
2024/02/23 03:35:17;;;;;;;1999.90;999.90;;;8.20;99.90;;;;;;5051676;28;20025;-83
2024/02/23 03:37:43;;;;;;;1999.90;999.90;;;8.20;99.90;;;;;;5053093;28;20052;-83
2024/02/23 03:40:10;;;;;;;1999.90;999.90;;;8.20;99.90;;;;;;5054400;28;20032;-80
2024/02/23 03:42:36;;;;;;;1999.90;999.90;;;8.30;99.90;;;;;;5051882;28;20033;-80
2024/02/23 03:45:02;;;;;;;1999.90;999.90;;;8.30;99.90;;;;;;5053289;28;20025;-80
2024/02/23 03:47:28;;;;;;;1999.90;999.90;;;8.10;99.90;;;;;;5052056;28;20502;-83
2024/02/23 03:49:54;;;;;;;1999.90;999.90;;;7.90;99.90;;;;;;5051469;28;20017;-80
2024/02/23 03:52:19;;;;;;;1999.90;999.90;;;7.80;99.90;;;;;;5055083;28;20048;-80
2024/02/23 03:54:45;;;;;;;1999.90;999.90;;;7.80;99.90;;;;;;5051948;28;20028;-81
2024/02/23 03:57:11;;;;;;;1999.90;999.90;;;7.80;99.90;;;;;;5051728;28;20029;-84
2024/02/23 03:59:41;;;;;;;1999.90;999.90;;;7.80;99.90;;;;;;5054654;28;20048;-80
2024/02/23 04:02:06;;;;;;;1999.90;999.90;;;7.70;99.90;;;;;;5055552;28;20512;-80
2024/02/23 04:04:32;;;;;;;1999.90;999.90;;;7.70;99.90;;;;;;5058797;28;20060;-81
2024/02/23 04:06:57;;;;;;;1999.90;999.90;;;7.70;99.90;;;;;;5057015;28;20025;-84
2024/02/23 04:09:24;;;;;;;1999.90;999.90;;;7.60;99.90;;;;;;5055352;28;20394;-84
2024/02/23 04:11:50;;;;;;;1999.90;999.90;;;7.60;99.90;;;;;;5058296;28;20116;-80
2024/02/23 04:14:15;;;;;;;1999.90;999.90;;;7.70;99.90;;;;;;5056462;28;20065;-80
2024/02/23 04:16:41;;;;;;;1999.90;999.90;;;7.90;99.90;;;;;;5054618;28;20048;-83
2024/02/23 04:19:07;;;;;;;1999.90;999.90;;;8.20;99.90;;;;;;5056978;28;20044;-84
2024/02/23 04:21:32;;;;;;;1999.90;999.90;;;8.30;99.90;;;;;;5056584;28;20078;-80
2024/02/23 04:23:58;;;;;;;1999.90;999.90;;;8.30;99.90;;;;;;5055089;28;20449;-83
2024/02/23 04:26:27;;;;;;;1999.90;999.90;;;8.20;99.90;;;;;;5059548;28;20028;-84
2024/02/23 04:28:52;;;;;;;1999.90;999.90;;;8.20;99.90;;;;;;5054886;28;20506;-83
2024/02/23 04:31:18;;;;;;;1999.90;999.90;;;8.20;99.90;;;;;;5065590;28;20009;-80
2024/02/23 04:33:43;;;;;;;1999.90;999.90;;;8.30;99.90;;;;;;5057729;28;20517;-79
2024/02/23 04:36:09;;;;;;;1999.90;999.90;;;8.30;99.90;;;;;;5055374;28;20028;-84
2024/02/23 04:38:38;;;;;;;1999.90;999.90;;;8.30;99.90;;;;;;5056621;28;20045;-80
2024/02/23 04:41:05;;;;;;;1999.90;999.90;;;8.20;99.90;;;;;;5056274;28;20475;-83
2024/02/23 04:43:30;;;;;;;1999.90;999.90;;;8.10;99.90;;;;;;5054596;28;20108;-79
2024/02/23 04:45:56;;;;;;;1999.90;999.90;;;8.10;99.90;;;;;;5057384;28;20076;-79
2024/02/23 04:48:22;;;;;;;1999.90;999.90;;;8.00;99.90;;;;;;5056046;28;20021;-80
2024/02/23 04:50:47;;;;;;;1999.90;999.90;;;8.00;99.90;;;;;;5061873;28;20013;-82
2024/02/23 04:53:13;;;;;;;1999.90;999.90;;;8.00;99.90;;;;;;5056177;28;20487;-80
2024/02/23 04:55:38;;;;;;;1999.90;999.90;;;8.00;99.90;;;;;;5054238;28;20136;-83
2024/02/23 04:58:04;;;;;;;1999.90;999.90;;;8.00;99.90;;;;;;5055597;28;20033;-82
2024/02/23 05:00:33;;;;;;;1999.90;999.90;;;8.00;99.90;;;;;;5055931;28;20057;-80
2024/02/23 05:03:04;;;;;;;1999.90;999.90;;;7.90;99.90;;;;;;5055661;28;20048;-80
2024/02/23 05:05:31;;;;;;;1999.90;999.90;;;8.00;99.90;;;;;;5068392;28;20092;-82
2024/02/23 05:07:57;;;;;;;1999.90;999.90;;;8.00;99.90;;;;;;5054666;28;20483;-83
2024/02/23 05:10:22;;;;;;;1999.90;999.90;;;8.00;99.90;;;;;;5053871;28;20029;-83
2024/02/23 05:12:48;;;;;;;1999.90;999.90;;;8.10;99.90;;;;;;5067786;28;20041;-80
2024/02/23 05:15:14;;;;;;;1999.90;999.90;;;8.10;99.90;;;;;;5055231;28;20036;-79
2024/02/23 05:17:40;;;;;;;1999.90;999.90;;;8.10;99.90;;;;;;5054528;28;20049;-80
2024/02/23 05:20:10;;;;;;;1999.90;999.90;;;8.10;99.90;;;;;;5065205;28;20024;-82
2024/02/23 05:22:39;;;;;;;1999.90;999.90;;;8.20;99.90;;;;;;5058372;28;20032;-82
2024/02/23 05:25:05;;;;;;;1999.90;999.90;;;8.00;99.90;;;;;;5053883;28;20035;-83
2024/02/23 05:27:31;;;;;;;1999.90;999.90;;;8.00;99.90;;;;;;5058550;28;20554;-79
2024/02/23 05:29:57;;;;;;;1999.90;999.90;;;7.90;99.90;;;;;;5065487;28;20033;-80
2024/02/23 05:32:22;;;;;;;1999.90;999.90;;;7.80;99.90;;;;;;5053739;28;20087;-80
2024/02/23 05:34:51;;;;;;;1999.90;999.90;;;7.80;99.90;;;;;;5064085;28;20033;-80
2024/02/23 05:37:17;;;;;;;1999.90;999.90;;;7.60;99.90;;;;;;5053420;28;20586;-80
2024/02/23 05:39:44;;;;;;;1999.90;999.90;;;7.50;99.90;;;;;;5056740;28;20033;-81
2024/02/23 05:42:10;;;;;;;1999.90;999.90;;;7.50;99.90;;;;;;5060799;28;20032;-80
2024/02/23 05:44:39;;;;;;;1999.90;999.90;;;7.40;99.90;;;;;;5053472;28;20163;-80
2024/02/23 05:47:05;;;;;;;1999.90;999.90;;;7.40;99.90;;;;;;5056754;28;20029;-79
2024/02/23 05:49:31;;;;;;;1999.90;999.90;;;7.40;99.90;;;;;;5055214;28;20025;-80
2024/02/23 05:51:56;;;;;;;1999.90;999.90;;;7.50;99.90;;;;;;5053611;28;20020;-81
2024/02/23 05:54:22;;;;;;;1999.90;999.90;;;7.60;99.90;;;;;;5057745;28;20025;-83
2024/02/23 05:56:48;;;;;;;1999.90;999.90;;;7.80;99.90;;;;;;5054608;28;20035;-80
2024/02/23 05:59:14;;;;;;;1999.90;999.90;;;8.00;99.90;;;;;;5055844;28;20029;-82
2024/02/23 06:01:39;;;;;;;1999.90;999.90;;;8.10;99.90;;;;;;5054691;28;20449;-83
2024/02/23 06:04:05;;;;;;;1999.90;999.90;;;8.20;99.90;;;;;;5054588;28;20498;-82
2024/02/23 06:06:31;;;;;;;1999.90;999.90;;;8.20;99.90;;;;;;5064446;28;20033;-82
2024/02/23 06:08:56;;;;;;;1999.90;999.90;;;8.30;99.90;;;;;;5057142;28;20044;-83
2024/02/23 06:11:22;;;;;;;1999.90;999.90;;;8.40;99.90;;;;;;5052969;28;20029;-80
2024/02/23 06:13:48;;;;;;;1999.90;999.90;;;8.40;99.90;;;;;;5060472;28;20097;-82
2024/02/23 06:16:13;;;;;;;1999.90;999.90;;;8.40;99.90;;;;;;5054099;28;20017;-82
2024/02/23 06:18:42;;;;;;;1999.90;999.90;;;8.40;99.90;;;;;;5053171;28;20048;-83
2024/02/23 06:21:18;;;;;;;1999.90;999.90;;;8.50;99.90;;;;;;5055114;28;20060;-80
2024/02/23 06:23:44;;;;;;;1999.90;999.90;;;8.40;99.90;;;;;;5053604;28;20020;-83
2024/02/23 06:26:10;;;;;;;1999.90;999.90;;;7.90;99.90;;;;;;5053065;28;20491;-82
2024/02/23 06:28:41;;;;;;;1999.90;999.90;;;7.50;99.90;;;;;;5064915;28;20039;-82
2024/02/23 06:31:07;;;;;;;1999.90;999.90;;;7.20;99.90;;;;;;5073937;28;20394;-83
2024/02/23 06:33:33;;;;;;;1999.90;999.90;;;7.00;99.90;;;;;;5072296;28;20032;-79
2024/02/23 06:35:59;;;;;;;1999.90;999.90;;;6.80;99.90;;;;;;5055019;28;20029;-79
2024/02/23 06:38:25;;;;;;;1999.90;999.90;;;6.80;99.90;;;;;;5055970;28;20119;-80
2024/02/23 06:40:51;;;;;;;1999.90;999.90;;;6.90;99.90;;;;;;5053612;28;20095;-82
2024/02/23 06:43:17;;;;;;;1999.90;999.90;;;7.00;99.90;;;;;;5052435;28;20025;-79
2024/02/23 06:45:42;;;;;;;1999.90;999.90;;;7.10;99.90;;;;;;5046333;28;20025;-82
2024/02/23 06:48:08;;;;;;;1999.90;999.90;;;7.10;99.90;;;;;;5050687;28;20017;-81
2024/02/23 06:50:35;;;;;;;1999.90;999.90;;;7.20;99.90;;;;;;5066235;28;20478;-82
2024/02/23 06:53:02;;;;;;;1999.90;999.90;;;7.20;99.90;;;;;;5056226;28;20040;-79
2024/02/23 06:55:28;;;;;;;1999.90;999.90;;;7.20;99.90;;;;;;5060070;28;20064;-82
2024/02/23 06:57:55;;;;;;;1999.90;999.90;;;7.30;99.90;;;;;;5073176;28;20499;-82
2024/02/23 07:00:21;;;;;;;1999.90;999.90;;;7.30;99.90;;;;;;5071032;28;20039;-82
2024/02/23 07:02:47;;;;;;;1999.90;999.90;;;7.30;99.90;;;;;;5068650;28;20401;-82
2024/02/23 07:05:14;;;;;;;1999.90;999.90;;;7.30;99.90;;;;;;5057921;28;20040;-78
2024/02/23 07:07:41;;;;;;;1999.90;999.90;;;7.40;99.90;;;;;;5058501;28;20430;-82
2024/02/23 07:10:08;;;;;;;1999.90;999.90;;;7.40;99.90;;;;;;5053390;28;20025;-82
2024/02/23 07:12:34;;;;;;;1999.90;999.90;;;7.50;99.90;;;;;;5047983;28;20024;-78
2024/02/23 07:14:59;;;;;;;1999.90;999.90;;;7.50;99.90;;;;;;5052904;28;20074;-79
2024/02/23 07:17:25;;;;;;;1999.90;999.90;;;7.60;99.90;;;;;;5052102;28;20087;-79
2024/02/23 07:19:52;;;;;;;1999.90;999.90;;;7.60;99.90;;;;;;5054567;28;20053;-79
2024/02/23 07:22:18;;;;;;;1999.90;999.90;;;7.70;99.90;;;;;;5075565;28;20039;-82
2024/02/23 07:24:44;;;;;;;1999.90;999.90;;;7.70;99.90;;;;;;5069646;28;20025;-78
2024/02/23 07:27:10;;;;;;;1999.90;999.90;;;7.70;99.90;;;;;;5052744;28;20480;-79
2024/02/23 07:29:36;;;;;;;1999.90;999.90;;;7.50;99.90;;;;;;5052881;28;20025;-79
2024/02/23 07:32:02;;;;;;;1999.90;999.90;;;7.50;99.90;;;;;;5071296;28;20078;-82
2024/02/23 07:34:28;;;;;;;1999.90;999.90;;;7.40;99.90;;;;;;5053856;28;20033;-78
2024/02/23 07:36:54;;;;;;;1999.90;999.90;;;7.40;99.90;;;;;;5056710;28;20507;-82
2024/02/23 07:39:21;;;;;;;1999.90;999.90;;;7.40;99.90;;;;;;5060550;28;20036;-76
2024/02/23 07:41:47;;;;;;;1999.90;999.90;;;7.40;99.90;;;;;;5057654;28;20487;-76
2024/02/23 07:44:13;;;;;;;1999.90;999.90;;;7.50;99.90;;;;;;5072754;28;20023;-76
2024/02/23 07:46:38;;;;;;;1999.90;999.90;;;7.50;99.90;;;;;;5051228;28;20039;-76
2024/02/23 07:49:06;;;;;;;1999.90;999.90;;;7.60;99.90;;;;;;5059310;28;20067;-77
2024/02/23 07:51:31;;;;;;;1999.90;999.90;;;7.60;99.90;;;;;;5053851;28;20063;-76
2024/02/23 07:53:57;;;;;;;1999.90;999.90;;;7.70;99.90;;;;;;5053407;28;20037;-76
2024/02/23 07:56:23;;;;;;;1999.90;999.90;;;7.70;99.90;;;;;;5073837;28;20486;-77
2024/02/23 07:58:48;;;;;;;1999.90;999.90;;;7.90;99.90;;;;;;5075647;28;20040;-75
2024/02/23 08:01:14;;;;;;;1999.90;999.90;;;7.90;99.90;;;;;;5073020;28;20084;-75
2024/02/23 08:03:40;;;;;;;1999.90;999.90;;;8.00;99.90;;;;;;5061796;28;20071;-75
2024/02/23 08:06:06;;;;;;;1999.90;999.90;;;8.10;99.90;;;;;;5060421;28;20131;-74
2024/02/23 08:08:34;;;;;;;1999.90;999.90;;;8.10;99.90;;;;;;5051687;28;20028;-73
2024/02/23 08:11:02;;;;;;;1999.90;999.90;;;8.20;99.90;;;;;;5053891;28;20486;-72
2024/02/23 08:13:27;;;;;;;1999.90;999.90;;;8.20;99.90;;;;;;5067114;28;20043;-74
2024/02/23 08:15:53;;;;;;;1999.90;999.90;;;8.20;99.90;;;;;;5066649;28;20032;-73
2024/02/23 08:18:19;;;;;;;1999.90;999.90;;;8.30;99.90;;;;;;5054626;28;20052;-74
2024/02/23 08:20:44;;;;;;;1999.90;999.90;;;8.40;99.90;;;;;;5069372;28;20020;-73
2024/02/23 08:23:10;;;;;;;1999.90;999.90;;;8.40;99.90;;;;;;5063707;28;20037;-74
2024/02/23 08:25:36;;;;;;;1999.90;999.90;;;8.40;99.90;;;;;;5068579;28;20041;-75
2024/02/23 08:28:02;;;;;;;1999.90;999.90;;;8.40;99.90;;;;;;5064264;28;20017;-73
2024/02/23 08:30:27;;;;;;;1999.90;999.90;;;8.40;99.90;;;;;;5066009;28;20427;-73
2024/02/23 08:32:53;;;;;;;1999.90;999.90;;;8.40;99.90;;;;;;5068020;28;20059;-73
2024/02/23 08:35:19;;;;;;;1999.90;999.90;;;8.50;99.90;;;;;;5064695;28;20107;-73
2024/02/23 08:37:45;;;;;;;1999.90;999.90;;;8.50;99.90;;;;;;5071425;28;20036;-74
2024/02/23 08:40:11;;;;;;;1999.90;999.90;;;8.50;99.90;;;;;;5054064;28;20036;-74
2024/02/23 08:42:37;;;;;;;1999.90;999.90;;;8.50;99.90;;;;;;5054601;28;20025;-73
2024/02/23 08:45:03;;;;;;;1999.90;999.90;;;8.60;99.90;;;;;;5054148;28;20028;-74
2024/02/23 08:47:32;;;;;;;1999.90;999.90;;;7.70;99.90;;;;;;5066365;28;20025;-74
2024/02/23 08:49:58;;;;;;;1999.90;999.90;;;7.50;99.90;;;;;;5073021;28;20036;-73
2024/02/23 08:52:24;;;;;;;1999.90;999.90;;;7.60;99.90;;;;;;5044540;28;20418;-73
2024/02/23 08:54:50;;;;;;;1999.90;999.90;;;7.60;99.90;;;;;;5052595;28;20028;-74
2024/02/23 08:57:19;;;;;;;1999.90;999.90;;;7.70;99.90;;;;;;5063052;28;20083;-75
2024/02/23 08:59:45;;;;;;;1999.90;999.90;;;7.80;99.90;;;;;;5035386;28;20507;-75
2024/02/23 09:02:11;;;;;;;1999.90;999.90;;;7.90;99.90;;;;;;5052078;28;20021;-75
2024/02/23 09:04:36;;;;;;;1999.90;999.90;;;8.00;99.90;;;;;;5054189;28;20111;-74
2024/02/23 09:07:02;;;;;;;1999.90;999.90;;;8.20;99.90;;;;;;5061832;28;20104;-75
2024/02/23 09:09:28;;;;;;;1999.90;999.90;;;8.50;99.90;;;;;;5053528;28;20045;-74
2024/02/23 09:11:53;;;;;;;1999.90;999.90;;;9.70;99.90;;;;;;5065686;28;20021;-75
2024/02/23 09:14:19;;;;;;;1999.90;999.90;;;11.00;99.90;;;;;;5050653;28;20029;-74
2024/02/23 09:16:46;;;;;;;1999.90;999.90;;;12.10;99.90;;;;;;5053671;28;20466;-74
2024/02/23 09:19:12;;;;;;;1999.90;999.90;;;11.80;99.90;;;;;;5051343;28;20024;-73
2024/02/23 09:21:38;;;;;;;1999.90;999.90;;;11.20;99.90;;;;;;5056509;28;20029;-75
2024/02/23 09:24:04;;;;;;;1999.90;999.90;;;10.70;99.90;;;;;;5053069;28;20028;-75
2024/02/23 09:26:31;;;;;;;1999.90;999.90;;;10.70;99.90;;;;;;5054827;28;20056;-75
2024/02/23 09:28:56;;;;;;;1999.90;999.90;;;11.00;99.90;;;;;;5056907;28;20051;-74
2024/02/23 09:31:22;;;;;;;1999.90;999.90;;;11.10;99.90;;;;;;5050903;28;20418;-73
2024/02/23 09:33:50;;;;;;;1999.90;999.90;;;11.00;99.90;;;;;;5048959;28;20044;-73
2024/02/23 09:36:17;;;;;;;1999.90;999.90;;;10.50;99.90;;;;;;5046510;28;20411;-74
2024/02/23 09:38:44;;;;;;;1999.90;999.90;;;10.30;99.90;;;;;;5060877;28;20021;-73
2024/02/23 09:41:19;;;;;;;1999.90;999.90;;;9.90;99.90;;;;;;5053992;28;20021;-73
2024/02/23 09:43:46;;;;;;;1999.90;999.90;;;9.70;99.90;;;;;;5059102;28;20025;-74
2024/02/23 09:46:12;;;;;;;1999.90;999.90;;;9.50;99.90;;;;;;5055338;28;20033;-74
2024/02/23 09:48:39;;;;;;;1999.90;999.90;;;9.60;99.90;;;;;;5052618;28;20583;-74
2024/02/23 09:51:06;;;;;;;1999.90;999.90;;;9.70;99.90;;;;;;5051554;28;20422;-73
2024/02/23 09:53:34;;;;;;;1999.90;999.90;;;9.90;99.90;;;;;;5050758;28;20025;-73
2024/02/23 09:56:00;;;;;;;1999.90;999.90;;;10.00;99.90;;;;;;5052258;28;20032;-72
2024/02/23 09:58:29;;;;;;;1999.90;999.90;;;10.00;99.90;;;;;;5049127;28;20017;-74
2024/02/23 10:00:58;;;;;;;1999.90;999.90;;;9.80;99.90;;;;;;5053024;28;20100;-74
2024/02/23 10:03:30;;;;;;;1999.90;999.90;;;9.70;99.90;;;;;;5049354;28;20059;-74
2024/02/23 10:06:02;;;;;;;1999.90;999.90;;;9.70;99.90;;;;;;5049129;28;20033;-74
2024/02/23 10:08:28;;;;;;;1999.90;999.90;;;9.70;99.90;;;;;;5048236;28;20029;-73
2024/02/23 10:10:55;;;;;;;1999.90;999.90;;;9.70;99.90;;;;;;5051046;28;20037;-73
2024/02/23 10:13:24;;;;;;;1999.90;999.90;;;9.80;99.90;;;;;;5052184;28;20483;-73
2024/02/23 10:15:50;;;;;;;1999.90;999.90;;;9.70;99.90;;;;;;5050787;28;20035;-73
2024/02/23 10:18:16;;;;;;;1999.90;999.90;;;9.60;99.90;;;;;;5052888;28;20043;-73
2024/02/23 10:20:43;;;;;;;1999.90;999.90;;;9.50;99.90;;;;;;5053420;28;20040;-74
2024/02/23 10:23:09;;;;;;;1999.90;999.90;;;9.30;99.90;;;;;;5054795;28;20025;-73
2024/02/23 10:25:36;;;;;;;1999.90;999.90;;;9.00;99.90;;;;;;5052877;28;20056;-73
2024/02/23 10:28:05;;;;;;;1999.90;999.90;;;8.20;99.90;;;;;;5055281;28;20024;-74
2024/02/23 10:30:31;;;;;;;1999.90;999.90;;;7.80;99.90;;;;;;5048713;28;20039;-74
2024/02/23 10:32:59;;;;;;;1999.90;999.90;;;7.60;99.90;;;;;;5052012;28;20033;-74
2024/02/23 10:35:26;;;;;;;1999.90;999.90;;;7.50;99.90;;;;;;5052055;28;20084;-74
2024/02/23 10:37:53;;;;;;;1999.90;999.90;;;7.50;99.90;;;;;;5052868;28;20175;-73
2024/02/23 10:40:23;;;;;;;1999.90;999.90;;;7.60;99.90;;;;;;5052043;28;20024;-74
2024/02/23 10:42:53;;;;;;;1999.90;999.90;;;7.70;99.90;;;;;;5067875;28;20013;-74
2024/02/23 10:45:21;;;;;;;1999.90;999.90;;;7.80;99.90;;;;;;5070797;28;20032;-73
2024/02/23 10:47:53;;;;;;;1999.90;999.90;;;7.90;99.90;;;;;;5048849;28;20090;-73
2024/02/23 10:50:19;;;;;;;1999.90;999.90;;;8.20;99.90;;;;;;5059135;28;20025;-74
2024/02/23 10:52:46;;;;;;;1999.90;999.90;;;8.60;99.90;;;;;;5071820;28;20043;-73
2024/02/23 10:55:13;;;;;;;1999.90;999.90;;;8.80;99.90;;;;;;5057484;28;20059;-73
2024/02/23 10:57:39;;;;;;;1999.90;999.90;;;8.80;99.90;;;;;;5052025;28;20041;-73
2024/02/23 11:00:09;;;;;;;1999.90;999.90;;;8.70;99.90;;;;;;5051699;28;20116;-74
2024/02/23 11:02:39;;;;;;;1999.90;999.90;;;8.60;99.90;;;;;;5051996;28;20037;-74
2024/02/23 11:05:09;;;;;;;1999.90;999.90;;;8.70;99.90;;;;;;5066670;28;20471;-74
2024/02/23 11:07:38;;;;;;;1999.90;999.90;;;8.90;99.90;;;;;;5063660;28;20446;-74
2024/02/23 11:10:05;;;;;;;1999.90;999.90;;;9.00;99.90;;;;;;5052279;28;20405;-73
2024/02/23 11:12:31;;;;;;;1999.90;999.90;;;9.10;99.90;;;;;;5043644;28;20747;-73
2024/02/23 11:15:00;;;;;;;1999.90;999.90;;;9.30;99.90;;;;;;5051236;28;20037;-73
2024/02/23 11:17:29;;;;;;;1999.90;999.90;;;9.50;99.90;;;;;;5067232;28;20110;-73
2024/02/23 11:19:56;;;;;;;1999.90;999.90;;;9.70;99.90;;;;;;5068894;28;20044;-74
2024/02/23 11:22:45;;;;;;;1999.90;999.90;;;10.00;99.90;;;;;;5061847;28;20021;-78
2024/02/23 11:25:10;;;;;;;1999.90;999.90;;;10.20;99.90;;;;;;5060274;28;20025;-78
2024/02/23 11:27:38;;;;;;;1999.90;999.90;;;10.60;99.90;;;;;;5051077;28;20079;-78
2024/02/23 11:30:08;;;;;;;1999.90;999.90;;;10.90;99.90;;;;;;5052221;28;20107;-79
2024/02/23 11:32:42;;;;;;;1999.90;999.90;;;10.90;99.90;;;;;;5053003;28;20115;-78
2024/02/23 11:35:10;;;;;;;1999.90;999.90;;;10.90;99.90;;;;;;5058974;28;20033;-78
2024/02/23 11:38:02;;;;;;;1999.90;999.90;;;11.20;99.90;;;;;;5071131;28;20021;-78
2024/02/23 11:40:29;;;;;;;1999.90;999.90;;;11.30;99.90;;;;;;5053759;28;20027;-77
2024/02/23 11:42:55;;;;;;;1999.90;999.90;;;11.00;99.90;;;;;;5051960;28;20025;-77
2024/02/23 11:45:21;;;;;;;1999.90;999.90;;;10.30;99.90;;;;;;5058856;28;20398;-77
2024/02/23 11:47:47;;;;;;;1999.90;999.90;;;9.50;99.90;;;;;;5052077;28;20033;-77
2024/02/23 11:50:15;;;;;;;1999.90;999.90;;;9.10;99.90;;;;;;5055729;28;20040;-77
2024/02/23 11:52:41;;;;;;;1999.90;999.90;;;8.80;99.90;;;;;;5049174;28;20025;-77
2024/02/23 11:55:10;;;;;;;1999.90;999.90;;;8.50;99.90;;;;;;5053290;28;20047;-77
2024/02/23 11:57:39;;;;;;;1999.90;999.90;;;8.50;99.90;;;;;;5065559;28;20403;-77
2024/02/23 12:00:10;;;;;;;1999.90;999.90;;;8.50;99.90;;;;;;5051416;28;20544;-76
2024/02/23 12:02:36;;;;;;;1999.90;999.90;;;8.50;99.90;;;;;;5048852;28;20029;-77
2024/02/23 12:05:02;;;;;;;1999.90;999.90;;;8.70;99.90;;;;;;5064629;28;20032;-77